Phillips, WI

2:21 PM CST on December 02, 2016 (GMT -0600)
Downtown (BP station) | | Change Station

Elev 1470 ft 45.69 °N, 90.40 °W | Updated 13 minutes ago

Overcast
Overcast
29.2 °F
Feels Like 29 °F
N
0.0
Wind Variable Wind from WNW
Gusts 2.0 mph

Today
High -- | Low -- °F
--% Chance of Precip.
Yesterday
High -- | Low -- °F
Precip. -- in
Pressure 30.16 in
Visibility 10.0 miles
Clouds Overcast 1500 ft
Windchill 29 °F
Dew Point 25 °F
Humidity 84%
Rainfall 0.00 in
Snow Depth Not available.
7:23 AM 4:18 PM
Waxing Crescent, 10% visible
METAR KPBH 022015Z AUTO 32004KT 10SM OVC015 M01/M04 A3016 RMK AO2 T10151040
Pressure 30.16 in
Visibility 10.0 miles
Clouds Overcast 1500 ft
Windchill 29 °F
Dew Point 25 °F
Humidity 84%
Rainfall 0.00 in
Snow Depth Not available.
7:23 AM 4:18 PM
Waxing Crescent, 10% visible
METAR KPBH 022015Z AUTO 32004KT 10SM OVC015 M01/M04 A3016 RMK AO2 T10151040

10-Day Weather Forecast

Almanac

Astronomy

Dec. 02, 2016 Rise Set
Actual Time
Civil Twilight
Nautical Twilight
Astronomical Twilight
Moon
Length of Visible Light
Length of Day
Tomorrow will be .
, % of the Moon is Illuminated

Today's Extremes

State Highs State Lows

Community

WunderPhotos

Upload Photos

1,955,352 photos uploaded!

WunderBlog® & News

Nearby

Air Quality

  Air Quality AQ Index Pollutant
Not available.

Snow Depth

Station Depth Elevation

Earthquake Activity

City Distance Mag. Time & Date
Minimum magnitude displayed is 2.5.

Coastal Water Temperatures

Place Temperature

Stations

Nearby Weather Stations

Station Location Temp. Windchill Dew Point Humidity Wind Precip. Elev Updated Type
                   

Watches & Warnings

There are currently no watches in effect.